createdAt,value
2023-11-01T00:02:21.927Z,8.45
2023-11-01T00:04:48.893Z,8.43
2023-11-01T00:07:16.659Z,8.35
2023-11-01T00:09:43.616Z,8.29
2023-11-01T00:12:10.985Z,8.19
2023-11-01T00:14:37.979Z,8.27
2023-11-01T00:17:05.327Z,8.08
2023-11-01T00:19:32.561Z,8.21
2023-11-01T00:21:59.727Z,8.14
2023-11-01T00:24:26.891Z,8.25
2023-11-01T00:26:54.178Z,8.24
2023-11-01T00:29:21.496Z,8.17
2023-11-01T00:31:48.664Z,8.14
2023-11-01T00:34:16.047Z,8.05
2023-11-01T00:36:42.930Z,7.92
2023-11-01T00:39:10.122Z,8.01
2023-11-01T00:41:37.335Z,7.94
2023-11-01T00:44:04.793Z,7.88
2023-11-01T00:46:31.992Z,7.80
2023-11-01T00:48:59.207Z,7.80
2023-11-01T00:51:26.374Z,7.84
2023-11-01T00:53:53.330Z,7.88
2023-11-01T00:56:20.579Z,7.91
2023-11-01T00:58:47.912Z,7.89
2023-11-01T01:01:15.138Z,7.79
2023-11-01T01:03:42.523Z,7.80
2023-11-01T01:06:09.737Z,7.79
2023-11-01T01:08:37.064Z,7.50
2023-11-01T01:11:04.519Z,7.82
2023-11-01T01:13:31.686Z,7.79
2023-11-01T01:15:58.946Z,7.82
2023-11-01T01:18:26.150Z,7.79
2023-11-01T01:20:53.176Z,7.73
2023-11-01T01:23:20.343Z,7.67
2023-11-01T01:25:47.583Z,7.70
2023-11-01T01:28:14.476Z,7.78
2023-11-01T01:30:41.595Z,7.80
2023-11-01T01:33:08.901Z,7.90
2023-11-01T01:35:35.861Z,8.16
2023-11-01T01:38:03.011Z,8.46
2023-11-01T01:40:30.528Z,8.68
2023-11-01T01:43:19.301Z,8.98
2023-11-01T01:45:49.086Z,9.01
2023-11-01T01:48:16.333Z,9.06
2023-11-01T01:50:43.604Z,9.11
2023-11-01T01:53:10.838Z,9.23
2023-11-01T01:55:37.975Z,8.85
2023-11-01T01:58:05.144Z,8.94
2023-11-01T02:00:33.504Z,8.76
2023-11-01T02:03:01.839Z,8.50
2023-11-01T02:05:29.193Z,8.27
2023-11-01T02:07:56.390Z,8.38
2023-11-01T02:10:24.342Z,8.25
2023-11-01T02:12:53.095Z,8.20
2023-11-01T02:15:19.916Z,8.13
2023-11-01T02:17:46.951Z,8.15
2023-11-01T02:20:15.312Z,8.13
2023-11-01T02:22:43.614Z,8.13
2023-11-01T02:25:10.957Z,8.00
2023-11-01T02:27:37.988Z,7.99
2023-11-01T02:30:06.380Z,7.97
2023-11-01T02:32:33.453Z,8.07
2023-11-01T02:35:01.469Z,7.95
2023-11-01T02:37:30.563Z,8.20
2023-11-01T02:39:57.827Z,7.97
2023-11-01T02:42:24.767Z,8.34
2023-11-01T02:44:51.960Z,8.70
2023-11-01T02:47:19.128Z,8.85
2023-11-01T02:49:46.503Z,8.87
2023-11-01T02:52:13.408Z,9.17
2023-11-01T02:54:40.618Z,9.46
2023-11-01T02:57:07.601Z,9.62
2023-11-01T02:59:34.929Z,9.62
2023-11-01T03:02:02.086Z,9.61
2023-11-01T03:04:28.926Z,9.80
2023-11-01T03:06:56.123Z,9.93
2023-11-01T03:09:23.288Z,10.02
2023-11-01T03:11:50.486Z,10.03
2023-11-01T03:14:17.669Z,9.95
2023-11-01T03:16:44.874Z,9.88
2023-11-01T03:19:12.116Z,9.91
2023-11-01T03:21:42.655Z,9.86
2023-11-01T03:24:09.766Z,9.80
2023-11-01T03:26:36.919Z,9.94
2023-11-01T03:29:04.085Z,9.97
2023-11-01T03:31:31.319Z,9.97
2023-11-01T03:33:58.655Z,9.88
2023-11-01T03:36:25.717Z,9.96
2023-11-01T03:38:52.591Z,10.01
2023-11-01T03:41:19.706Z,10.00
2023-11-01T03:43:46.849Z,10.01
2023-11-01T03:46:14.189Z,9.96
2023-11-01T03:48:41.574Z,9.93
2023-11-01T03:51:08.527Z,9.83
2023-11-01T03:53:35.856Z,9.95
2023-11-01T03:56:04.677Z,9.83
2023-11-01T03:58:32.031Z,9.75
2023-11-01T04:00:59.138Z,9.59
2023-11-01T04:03:27.746Z,9.66
2023-11-01T04:05:56.129Z,9.56
2023-11-01T04:08:23.773Z,9.62
2023-11-01T04:10:50.653Z,9.54
2023-11-01T04:13:18.045Z,9.70
2023-11-01T04:15:45.218Z,9.73
2023-11-01T04:18:12.489Z,9.75
2023-11-01T04:20:39.859Z,9.69
2023-11-01T04:23:07.018Z,9.78
2023-11-01T04:25:34.224Z,9.60
2023-11-01T04:28:01.334Z,9.86
2023-11-01T04:30:28.334Z,9.89
2023-11-01T04:32:55.590Z,9.89
2023-11-01T04:35:22.841Z,9.74
2023-11-01T04:37:50.078Z,9.69
2023-11-01T04:40:17.230Z,9.69
2023-11-01T04:42:45.916Z,9.58
2023-11-01T04:45:13.464Z,9.49
2023-11-01T04:47:42.680Z,9.30
2023-11-01T04:50:10.900Z,9.31
2023-11-01T04:52:39.264Z,9.14
2023-11-01T04:55:09.427Z,9.05
2023-11-01T04:57:36.844Z,8.84
2023-11-01T05:00:12.828Z,8.78
2023-11-01T05:02:40.343Z,8.66
2023-11-01T05:05:09.565Z,8.57
2023-11-01T05:07:37.487Z,8.46
2023-11-01T05:10:05.092Z,8.32
2023-11-01T05:12:32.437Z,8.22
2023-11-01T05:14:59.727Z,8.19
2023-11-01T05:17:26.727Z,7.94
2023-11-01T05:19:54.276Z,8.01
2023-11-01T05:22:21.392Z,7.93
2023-11-01T05:24:50.416Z,7.83
2023-11-01T05:27:18.567Z,7.67
2023-11-01T05:29:46.414Z,7.75
2023-11-01T05:32:13.854Z,7.65
2023-11-01T05:34:41.870Z,7.70
2023-11-01T05:37:12.572Z,7.67
2023-11-01T05:39:41.860Z,7.67
2023-11-01T05:42:09.966Z,7.65
2023-11-01T05:44:37.129Z,7.69
2023-11-01T05:47:05.052Z,7.73
2023-11-01T05:49:32.877Z,7.74
2023-11-01T05:52:00.127Z,7.78
2023-11-01T05:54:27.856Z,7.80
2023-11-01T05:56:55.722Z,7.81
2023-11-01T05:59:22.888Z,7.73
2023-11-01T06:01:50.320Z,7.83
2023-11-01T06:04:17.525Z,7.86
2023-11-01T06:06:44.803Z,7.87
2023-11-01T06:09:18.047Z,7.92
2023-11-01T06:11:45.294Z,7.82
2023-11-01T06:14:12.606Z,8.00
2023-11-01T06:16:39.939Z,8.06
2023-11-01T06:19:07.390Z,8.24
2023-11-01T06:21:34.530Z,8.26
2023-11-01T06:24:02.946Z,8.32
2023-11-01T06:26:29.957Z,8.36
2023-11-01T06:28:57.131Z,8.40
2023-11-01T06:31:24.518Z,8.40
2023-11-01T06:33:51.712Z,8.55
2023-11-01T06:36:19.194Z,8.53
2023-11-01T06:38:46.450Z,8.71
2023-11-01T06:41:13.607Z,8.79
2023-11-01T06:43:40.582Z,8.93
2023-11-01T06:46:07.741Z,9.08
2023-11-01T06:48:34.727Z,9.17
2023-11-01T06:51:02.136Z,9.23
2023-11-01T06:53:29.381Z,9.14
2023-11-01T06:55:56.669Z,9.41
2023-11-01T06:58:23.891Z,9.51
2023-11-01T07:00:51.120Z,9.60
2023-11-01T07:03:18.459Z,9.78
2023-11-01T07:05:45.871Z,9.94
2023-11-01T07:08:12.739Z,10.12
2023-11-01T07:10:39.944Z,10.30
2023-11-01T07:13:08.052Z,10.49
2023-11-01T07:15:35.269Z,10.70
2023-11-01T07:18:02.768Z,10.99
2023-11-01T07:20:30.130Z,10.98
2023-11-01T07:22:57.110Z,11.14
2023-11-01T07:25:24.306Z,11.38
2023-11-01T07:27:51.456Z,11.65
2023-11-01T07:30:18.613Z,12.00
2023-11-01T07:32:46.314Z,12.31
2023-11-01T07:35:13.727Z,12.60
2023-11-01T07:37:41.051Z,13.02
2023-11-01T07:40:10.636Z,13.41
2023-11-01T07:42:39.506Z,13.60
2023-11-01T07:45:07.453Z,13.88
2023-11-01T07:47:35.727Z,14.16
2023-11-01T07:50:05.567Z,14.39
2023-11-01T07:52:32.714Z,14.63
2023-11-01T07:54:59.753Z,14.77
2023-11-01T07:57:26.616Z,14.94
2023-11-01T07:59:54.408Z,15.16
2023-11-01T08:02:21.357Z,15.41
2023-11-01T08:04:48.356Z,15.57
2023-11-01T08:07:16.546Z,15.91
2023-11-01T08:09:43.558Z,16.08
2023-11-01T08:12:10.487Z,15.46
2023-11-01T08:14:37.768Z,15.97
2023-11-01T08:17:05.295Z,16.32
2023-11-01T08:19:32.182Z,16.01
2023-11-01T08:21:59.042Z,16.70
2023-11-01T08:24:26.250Z,16.70
2023-11-01T08:26:53.375Z,16.93
2023-11-01T08:29:20.389Z,17.05
2023-11-01T08:31:47.382Z,17.31
2023-11-01T08:34:14.840Z,17.35
2023-11-01T08:36:41.819Z,17.75
2023-11-01T08:39:08.901Z,18.02
2023-11-01T08:41:36.146Z,17.79
2023-11-01T08:44:03.165Z,18.30
2023-11-01T08:46:30.553Z,18.28
2023-11-01T08:48:57.815Z,18.50
2023-11-01T08:51:26.707Z,18.14
2023-11-01T08:53:53.701Z,17.94
2023-11-01T08:56:20.969Z,17.80
2023-11-01T08:58:48.470Z,17.15
2023-11-01T09:01:15.662Z,16.49
2023-11-01T09:03:43.117Z,16.70
2023-11-01T09:06:10.421Z,16.47
2023-11-01T09:08:38.055Z,16.93
2023-11-01T09:11:05.648Z,17.10
2023-11-01T09:13:33.058Z,17.28
2023-11-01T09:16:00.678Z,17.45
2023-11-01T09:18:27.740Z,17.36
2023-11-01T09:20:54.755Z,17.13
2023-11-01T09:23:21.788Z,17.46
2023-11-01T09:25:48.968Z,17.43
2023-11-01T09:28:16.061Z,17.58
2023-11-01T09:30:43.237Z,18.24
2023-11-01T09:33:10.548Z,18.59
2023-11-01T09:35:37.938Z,18.72
2023-11-01T09:38:04.886Z,19.38
2023-11-01T09:40:31.840Z,19.10
2023-11-01T09:42:59.142Z,19.89
2023-11-01T09:45:27.063Z,19.53
2023-11-01T09:47:54.383Z,19.42
2023-11-01T09:50:21.462Z,20.30
2023-11-01T09:52:48.746Z,20.00
2023-11-01T09:55:17.001Z,18.92
2023-11-01T09:57:45.898Z,18.21
2023-11-01T10:00:13.537Z,17.40
2023-11-01T10:02:40.598Z,16.42
2023-11-01T10:05:07.853Z,16.14
2023-11-01T10:07:35.091Z,15.70
2023-11-01T10:10:05.976Z,15.37
2023-11-01T10:12:33.030Z,16.56
2023-11-01T10:15:02.515Z,18.13
2023-11-01T10:17:29.857Z,17.93
2023-11-01T10:19:57.207Z,17.37
2023-11-01T10:22:24.844Z,16.75
2023-11-01T10:24:52.213Z,16.66
2023-11-01T10:27:19.117Z,16.55
2023-11-01T10:29:48.684Z,16.37
2023-11-01T10:32:16.201Z,17.60
2023-11-01T10:34:43.281Z,17.66
2023-11-01T10:37:10.688Z,17.84
2023-11-01T10:39:41.428Z,17.94
2023-11-01T10:42:10.887Z,18.53
2023-11-01T10:44:39.677Z,19.08
2023-11-01T10:47:08.591Z,18.41
2023-11-01T10:49:37.046Z,18.91
2023-11-01T10:52:05.153Z,18.78
2023-11-01T10:54:33.574Z,17.49
2023-11-01T10:57:01.078Z,18.57
2023-11-01T10:59:53.782Z,18.13
2023-11-01T11:02:31.373Z,18.06
2023-11-01T11:05:07.394Z,19.86
2023-11-01T11:07:55.277Z,20.78
2023-11-01T11:10:30.907Z,21.07
2023-11-01T11:13:09.935Z,20.17
2023-11-01T11:15:52.332Z,20.58
2023-11-01T11:18:23.313Z,21.62
2023-11-01T11:20:54.789Z,21.43
2023-11-01T11:23:32.611Z,21.47
2023-11-01T11:26:01.566Z,21.29
2023-11-01T11:28:39.347Z,20.73
2023-11-01T11:31:08.742Z,20.70
2023-11-01T11:33:45.380Z,20.61
2023-11-01T11:36:17.369Z,20.77
2023-11-01T11:38:57.800Z,21.36
2023-11-01T11:41:30.096Z,21.91
2023-11-01T11:44:03.796Z,22.71
2023-11-01T11:46:47.357Z,20.69
2023-11-01T11:49:29.919Z,19.25
2023-11-01T11:52:14.966Z,20.38
2023-11-01T11:54:42.211Z,21.68
2023-11-01T11:57:14.659Z,21.94
2023-11-01T11:59:43.619Z,21.63
2023-11-01T12:02:18.876Z,20.71
2023-11-01T12:04:46.641Z,21.59
2023-11-01T12:07:21.734Z,21.35
2023-11-01T12:09:49.943Z,21.00
2023-11-01T12:12:16.987Z,22.33
2023-11-01T12:14:54.524Z,23.18
2023-11-01T12:17:22.017Z,23.40
2023-11-01T12:19:48.934Z,24.12
2023-11-01T12:22:16.871Z,23.30
2023-11-01T12:24:47.707Z,23.33
2023-11-01T12:27:16.505Z,22.87
2023-11-01T12:29:50.890Z,23.27
2023-11-01T12:32:29.698Z,23.07
2023-11-01T12:34:56.621Z,22.30
2023-11-01T12:37:29.694Z,22.09
2023-11-01T12:40:11.716Z,20.92
2023-11-01T12:43:08.583Z,21.71
2023-11-01T12:45:35.600Z,20.65
2023-11-01T12:48:02.883Z,20.92
2023-11-01T12:50:31.329Z,20.87
2023-11-01T12:52:59.075Z,21.10
2023-11-01T12:55:27.813Z,21.58
2023-11-01T12:57:56.456Z,22.06
2023-11-01T13:00:29.106Z,22.73
2023-11-01T13:02:58.350Z,23.30
2023-11-01T13:05:25.582Z,22.94
2023-11-01T13:07:58.045Z,23.73
2023-11-01T13:10:26.109Z,22.98
2023-11-01T13:12:53.753Z,23.46
2023-11-01T13:15:21.685Z,22.64
2023-11-01T13:17:50.035Z,22.61
2023-11-01T13:20:17.303Z,23.47
2023-11-01T13:22:48.831Z,23.01
2023-11-01T13:25:16.281Z,23.48
2023-11-01T13:27:43.572Z,23.37
2023-11-01T13:30:11.134Z,23.71
2023-11-01T13:32:38.169Z,22.94
2023-11-01T13:35:05.798Z,23.82
2023-11-01T13:37:33.283Z,23.22
2023-11-01T13:40:00.534Z,23.04
2023-11-01T13:42:27.504Z,22.70
2023-11-01T13:44:54.687Z,22.51
2023-11-01T13:47:25.372Z,22.32
2023-11-01T13:49:53.113Z,22.68
2023-11-01T13:52:20.097Z,21.92
2023-11-01T13:54:47.284Z,21.14
2023-11-01T13:57:15.442Z,20.93
2023-11-01T13:59:42.344Z,21.48
2023-11-01T14:02:09.611Z,21.81
2023-11-01T14:04:36.666Z,22.30
2023-11-01T14:07:03.988Z,22.10
2023-11-01T14:09:31.088Z,21.97
2023-11-01T14:11:58.146Z,21.05
2023-11-01T14:14:25.381Z,20.27
2023-11-01T14:16:52.727Z,19.38
2023-11-01T14:19:20.046Z,18.91
2023-11-01T14:21:47.153Z,18.71
2023-11-01T14:24:17.225Z,18.29
2023-11-01T14:26:46.597Z,17.99
2023-11-01T14:29:13.776Z,17.53
2023-11-01T14:31:41.075Z,17.44
2023-11-01T14:34:08.503Z,17.18
2023-11-01T14:36:35.906Z,16.93
2023-11-01T14:39:04.287Z,16.91
2023-11-01T14:41:32.193Z,16.96
2023-11-01T14:44:00.874Z,16.67
2023-11-01T14:46:28.841Z,16.59
2023-11-01T14:48:56.317Z,16.47
2023-11-01T14:51:23.284Z,16.47
2023-11-01T14:53:50.263Z,16.42
2023-11-01T14:56:18.535Z,16.37
2023-11-01T14:58:48.493Z,16.19
2023-11-01T15:01:16.619Z,16.11
2023-11-01T15:03:45.641Z,16.04
2023-11-01T15:06:13.412Z,15.89
2023-11-01T15:08:40.946Z,15.97
2023-11-01T15:11:10.627Z,15.94
2023-11-01T15:13:37.943Z,15.85
2023-11-01T15:16:05.754Z,15.71
2023-11-01T15:18:32.787Z,15.51
2023-11-01T15:21:00.096Z,15.65
2023-11-01T15:23:27.349Z,15.48
2023-11-01T15:25:54.262Z,15.33
2023-11-01T15:28:21.465Z,15.21
2023-11-01T15:30:48.496Z,15.19
2023-11-01T15:33:15.905Z,15.03
2023-11-01T15:35:43.881Z,14.92
2023-11-01T15:38:11.114Z,14.86
2023-11-01T15:40:38.030Z,14.77
2023-11-01T15:43:04.968Z,14.70
2023-11-01T15:45:32.248Z,14.65
2023-11-01T15:47:59.491Z,14.55
2023-11-01T15:50:26.760Z,14.49
2023-11-01T15:52:54.317Z,14.49
2023-11-01T15:55:21.925Z,14.47
2023-11-01T15:57:50.097Z,14.39
2023-11-01T16:00:18.273Z,14.21
2023-11-01T16:02:46.488Z,14.14
2023-11-01T16:05:14.398Z,14.10
2023-11-01T16:07:43.114Z,14.06
2023-11-01T16:10:11.662Z,13.97
2023-11-01T16:12:39.036Z,13.91
2023-11-01T16:15:06.734Z,13.80
2023-11-01T16:17:33.925Z,13.77
2023-11-01T16:20:03.193Z,13.73
2023-11-01T16:22:31.098Z,13.63
2023-11-01T16:24:58.525Z,13.54
2023-11-01T16:27:26.926Z,13.44
2023-11-01T16:29:54.676Z,13.34
2023-11-01T16:32:22.272Z,13.24
2023-11-01T16:34:51.056Z,13.16
2023-11-01T16:37:18.276Z,12.95
2023-11-01T16:39:45.380Z,12.98
2023-11-01T16:42:14.057Z,12.88
2023-11-01T16:44:42.162Z,12.77
2023-11-01T16:47:10.032Z,12.71
2023-11-01T16:49:43.249Z,12.62
2023-11-01T16:52:11.872Z,12.55
2023-11-01T16:54:39.302Z,12.52
2023-11-01T16:57:07.022Z,12.48
2023-11-01T16:59:34.841Z,12.46
2023-11-01T17:02:04.108Z,12.37
2023-11-01T17:04:34.258Z,12.30
2023-11-01T17:07:02.425Z,12.24
2023-11-01T17:09:30.467Z,12.13
2023-11-01T17:11:59.475Z,11.97
2023-11-01T17:14:27.924Z,12.10
2023-11-01T17:16:56.370Z,11.98
2023-11-01T17:19:24.285Z,11.79
2023-11-01T17:21:51.735Z,11.69
2023-11-01T17:24:27.122Z,11.65
2023-11-01T17:26:58.830Z,11.48
2023-11-01T17:29:34.772Z,11.38
2023-11-01T17:32:02.641Z,11.25
2023-11-01T17:34:31.825Z,11.29
2023-11-01T17:37:04.686Z,11.30
2023-11-01T17:39:39.442Z,11.25
2023-11-01T17:42:07.392Z,11.27
2023-11-01T17:44:36.554Z,11.28
2023-11-01T17:47:23.117Z,11.30
2023-11-01T17:49:53.014Z,11.25
2023-11-01T17:52:28.557Z,11.26
2023-11-01T17:54:56.104Z,11.20
2023-11-01T17:57:23.524Z,11.08
2023-11-01T17:59:50.810Z,11.20
2023-11-01T18:02:28.026Z,11.09
2023-11-01T18:04:56.326Z,11.09
2023-11-01T18:07:25.035Z,10.84
2023-11-01T18:09:52.745Z,10.93
2023-11-01T18:12:20.312Z,10.75
2023-11-01T18:14:47.613Z,10.63
2023-11-01T18:17:15.523Z,10.65
2023-11-01T18:19:45.095Z,10.56
2023-11-01T18:22:43.741Z,10.61
2023-11-01T18:25:29.919Z,10.53
2023-11-01T18:28:03.686Z,10.49
2023-11-01T18:30:30.600Z,10.49
2023-11-01T18:32:58.776Z,10.57
2023-11-01T18:35:31.342Z,10.54
2023-11-01T18:37:58.430Z,10.46
2023-11-01T18:40:25.932Z,10.65
2023-11-01T18:42:58.188Z,10.68
2023-11-01T18:45:25.499Z,10.71
2023-11-01T18:47:53.474Z,10.78
2023-11-01T18:50:20.457Z,10.70
2023-11-01T18:52:48.424Z,10.53
2023-11-01T18:55:33.879Z,10.39
2023-11-01T18:58:00.987Z,10.27
2023-11-01T19:00:28.802Z,10.17
2023-11-01T19:03:04.491Z,10.09
2023-11-01T19:05:33.738Z,9.99
2023-11-01T19:08:01.526Z,9.86
2023-11-01T19:10:33.444Z,9.89
2023-11-01T19:13:01.068Z,9.92
2023-11-01T19:15:38.235Z,9.72
2023-11-01T19:18:20.268Z,9.85
2023-11-01T19:20:47.562Z,9.80
2023-11-01T19:23:15.264Z,9.80
2023-11-01T19:25:43.305Z,9.67
2023-11-01T19:28:10.532Z,9.64
2023-11-01T19:30:37.903Z,9.52
2023-11-01T19:33:05.711Z,9.51
2023-11-01T19:35:34.487Z,9.41
2023-11-01T19:38:04.191Z,9.14
2023-11-01T19:40:31.521Z,9.34
2023-11-01T19:42:59.359Z,9.15
2023-11-01T19:45:26.764Z,9.04
2023-11-01T19:47:54.089Z,9.18
2023-11-01T19:50:25.725Z,9.04
2023-11-01T19:52:53.850Z,9.13
2023-11-01T19:55:20.999Z,9.14
2023-11-01T19:57:48.760Z,9.11
2023-11-01T20:00:16.613Z,8.95
2023-11-01T20:02:43.911Z,8.78
2023-11-01T20:05:11.328Z,9.09
2023-11-01T20:07:39.203Z,9.12
2023-11-01T20:10:10.751Z,9.12
2023-11-01T20:12:39.831Z,9.02
2023-11-01T20:15:10.133Z,9.02
2023-11-01T20:17:38.142Z,8.91
2023-11-01T20:20:07.883Z,8.98
2023-11-01T20:22:40.029Z,8.89
2023-11-01T20:25:08.289Z,8.82
2023-11-01T20:27:36.948Z,8.79
2023-11-01T20:30:05.777Z,8.76
2023-11-01T20:32:33.008Z,8.83
2023-11-01T20:35:01.203Z,8.75
2023-11-01T20:37:28.295Z,8.69
2023-11-01T20:39:55.278Z,8.66
2023-11-01T20:42:23.424Z,8.49
2023-11-01T20:44:50.698Z,8.55
2023-11-01T20:47:19.137Z,8.61
2023-11-01T20:49:47.942Z,8.58
2023-11-01T20:52:15.381Z,8.55
2023-11-01T20:54:55.114Z,8.48
2023-11-01T20:57:24.283Z,8.60
2023-11-01T20:59:51.502Z,8.54
2023-11-01T21:02:18.733Z,8.43
2023-11-01T21:04:45.670Z,8.45
2023-11-01T21:07:15.583Z,8.51
2023-11-01T21:09:45.023Z,8.43
2023-11-01T21:12:12.848Z,8.51
2023-11-01T21:14:40.751Z,8.34
2023-11-01T21:17:08.176Z,8.38
2023-11-01T21:19:35.477Z,8.32
2023-11-01T21:22:02.856Z,8.40
2023-11-01T21:24:30.029Z,8.43
2023-11-01T21:26:58.034Z,8.36
2023-11-01T21:29:25.272Z,8.52
2023-11-01T21:31:52.455Z,8.61
2023-11-01T21:34:19.916Z,8.40
2023-11-01T21:36:47.342Z,8.53
2023-11-01T21:39:16.005Z,8.47
2023-11-01T21:41:45.181Z,8.59
2023-11-01T21:44:12.948Z,8.60
2023-11-01T21:46:40.443Z,8.56
2023-11-01T21:49:17.315Z,8.51
2023-11-01T21:51:44.745Z,8.40
2023-11-01T21:54:23.771Z,8.40
2023-11-01T21:56:51.977Z,8.39
2023-11-01T21:59:21.354Z,8.41
2023-11-01T22:01:48.768Z,8.11
2023-11-01T22:04:22.550Z,8.21
2023-11-01T22:06:52.000Z,8.19
2023-11-01T22:09:19.919Z,8.03
2023-11-01T22:11:52.276Z,7.98
2023-11-01T22:14:30.554Z,8.10
2023-11-01T22:16:59.643Z,8.05
2023-11-01T22:19:38.487Z,8.06
2023-11-01T22:22:21.539Z,8.14
2023-11-01T22:24:48.502Z,8.14
2023-11-01T22:27:17.757Z,8.10
2023-11-01T22:29:50.520Z,8.15
2023-11-01T22:32:21.901Z,8.03
2023-11-01T22:34:50.793Z,8.14
2023-11-01T22:37:29.641Z,8.20
2023-11-01T22:39:57.518Z,8.16
2023-11-01T22:42:32.438Z,8.10
2023-11-01T22:45:03.932Z,8.11
2023-11-01T22:47:31.376Z,8.09
2023-11-01T22:49:59.063Z,8.09
2023-11-01T22:52:26.125Z,8.07
2023-11-01T22:54:53.012Z,8.01
2023-11-01T22:57:20.240Z,8.08
2023-11-01T22:59:47.578Z,7.90
2023-11-01T23:02:16.563Z,7.97
2023-11-01T23:04:44.109Z,7.94
2023-11-01T23:07:11.819Z,7.88
2023-11-01T23:09:39.137Z,7.78
2023-11-01T23:12:06.909Z,7.74
2023-11-01T23:14:33.911Z,7.78
2023-11-01T23:17:01.404Z,7.78
2023-11-01T23:19:28.677Z,7.79
2023-11-01T23:21:55.619Z,7.81
2023-11-01T23:24:24.305Z,7.74
2023-11-01T23:26:56.699Z,7.69
2023-11-01T23:29:32.565Z,7.68
2023-11-01T23:32:01.620Z,7.65
2023-11-01T23:34:49.707Z,7.65
2023-11-01T23:37:29.102Z,7.71
2023-11-01T23:39:57.327Z,7.73
2023-11-01T23:42:24.345Z,7.74
2023-11-01T23:44:53.950Z,7.74
2023-11-01T23:47:25.112Z,7.71
2023-11-01T23:49:59.306Z,7.79
2023-11-01T23:52:31.031Z,7.81
2023-11-01T23:54:59.286Z,7.78
2023-11-01T23:57:31.459Z,7.71
2023-11-01T23:59:58.931Z,7.84
